createdAt,value
2022-08-17T00:00:59.272Z,6.13
2022-08-17T00:03:28.601Z,5.65
2022-08-17T00:06:07.698Z,6.18
2022-08-17T00:08:46.520Z,6.10
2022-08-17T00:11:25.891Z,5.32
2022-08-17T00:13:56.956Z,6.10
2022-08-17T00:16:51.953Z,5.53
2022-08-17T00:19:29.706Z,5.65
2022-08-17T00:22:35.150Z,6.00
2022-08-17T00:24:55.660Z,6.20
2022-08-17T00:27:22.332Z,6.05
2022-08-17T00:29:49.135Z,5.88
2022-08-17T00:33:13.884Z,6.20
2022-08-17T00:35:11.533Z,6.72
2022-08-17T00:37:51.141Z,6.32
2022-08-17T00:40:21.570Z,6.07
2022-08-17T00:42:54.779Z,6.70
2022-08-17T00:45:21.850Z,6.55
2022-08-17T00:47:48.857Z,6.35
2022-08-17T00:50:21.255Z,6.50
2022-08-17T00:52:53.554Z,6.03
2022-08-17T00:55:22.448Z,5.97
2022-08-17T00:57:59.306Z,6.40
2022-08-17T01:00:34.101Z,6.63
2022-08-17T01:03:16.605Z,6.85
2022-08-17T01:05:43.323Z,7.07
2022-08-17T01:08:14.581Z,6.45
2022-08-17T01:11:00.789Z,6.60
2022-08-17T01:13:42.015Z,6.13
2022-08-17T01:16:21.204Z,6.75
2022-08-17T01:18:54.180Z,7.07
2022-08-17T01:21:49.736Z,7.35
2022-08-17T01:24:22.658Z,7.22
2022-08-17T01:26:52.651Z,6.88
2022-08-17T01:29:25.125Z,7.03
2022-08-17T01:31:59.605Z,7.22
2022-08-17T01:34:42.101Z,6.47
2022-08-17T01:37:12.821Z,6.20
2022-08-17T01:39:56.789Z,6.72
2022-08-17T01:42:30.233Z,6.97
2022-08-17T01:45:01.124Z,6.78
2022-08-17T01:47:31.728Z,6.97
2022-08-17T01:50:09.848Z,7.18
2022-08-17T01:52:41.694Z,7.20
2022-08-17T01:55:09.251Z,7.10
2022-08-17T01:57:36.028Z,7.10
2022-08-17T02:00:05.940Z,6.95
2022-08-17T02:02:38.046Z,6.80
2022-08-17T02:05:07.680Z,6.93
2022-08-17T02:07:59.655Z,6.25
2022-08-17T02:10:33.649Z,6.70
2022-08-17T02:13:02.653Z,6.07
2022-08-17T02:15:29.623Z,6.53
2022-08-17T02:20:49.695Z,6.85
2022-08-17T02:23:23.851Z,6.85
2022-08-17T02:25:56.893Z,6.40
2022-08-17T02:28:23.612Z,7.22
2022-08-17T02:31:02.294Z,6.63
2022-08-17T02:33:41.759Z,6.88
2022-08-17T02:36:14.239Z,6.43
2022-08-17T02:38:43.439Z,6.85
2022-08-17T02:41:10.232Z,7.10
2022-08-17T02:43:37.778Z,7.40
2022-08-17T02:46:04.503Z,7.43
2022-08-17T02:48:32.023Z,6.97
2022-08-17T02:51:03.286Z,7.28
2022-08-17T02:53:35.824Z,7.65
2022-08-17T02:56:03.725Z,7.53
2022-08-17T02:58:35.553Z,7.03
2022-08-17T03:01:08.462Z,6.70
2022-08-17T03:03:40.028Z,7.10
2022-08-17T03:06:09.342Z,6.43
2022-08-17T03:08:37.267Z,7.15
2022-08-17T03:11:06.605Z,7.05
2022-08-17T03:13:33.462Z,6.90
2022-08-17T03:16:00.416Z,6.63
2022-08-17T03:18:33.282Z,7.47
2022-08-17T03:21:03.504Z,6.53
2022-08-17T03:23:33.346Z,7.03
2022-08-17T03:26:02.370Z,7.35
2022-08-17T03:28:29.478Z,6.75
2022-08-17T03:31:05.016Z,7.00
2022-08-17T03:33:32.564Z,6.63
2022-08-17T03:36:00.094Z,6.60
2022-08-17T03:38:27.100Z,6.75
2022-08-17T03:40:59.688Z,7.07
2022-08-17T03:43:32.864Z,6.70
2022-08-17T03:46:27.752Z,6.35
2022-08-17T03:49:19.809Z,6.00
2022-08-17T03:52:05.234Z,6.50
2022-08-17T03:54:50.532Z,6.93
2022-08-17T03:57:18.373Z,6.68
2022-08-17T03:59:52.553Z,7.05
2022-08-17T04:02:25.856Z,7.57
2022-08-17T04:04:53.415Z,7.68
2022-08-17T04:07:21.724Z,7.10
2022-08-17T04:09:51.369Z,7.60
2022-08-17T04:12:24.904Z,7.10
2022-08-17T04:14:54.692Z,6.95
2022-08-17T04:17:29.059Z,7.15
2022-08-17T04:19:56.247Z,7.30
2022-08-17T04:22:30.250Z,7.35
2022-08-17T04:25:00.357Z,7.38
2022-08-17T04:27:26.999Z,7.88
2022-08-17T04:29:58.935Z,7.95
2022-08-17T04:33:03.712Z,8.07
2022-08-17T04:35:19.938Z,8.45
2022-08-17T04:37:46.778Z,8.10
2022-08-17T04:43:25.913Z,7.97
2022-08-17T04:45:56.853Z,7.85
2022-08-17T04:48:36.120Z,7.55
2022-08-17T04:51:16.969Z,8.13
2022-08-17T04:53:45.900Z,7.55
2022-08-17T04:56:25.103Z,7.25
2022-08-17T04:58:54.183Z,7.43
2022-08-17T05:01:27.920Z,7.93
2022-08-17T05:03:58.382Z,8.65
2022-08-17T05:06:27.227Z,7.43
2022-08-17T05:08:58.114Z,8.13
2022-08-17T05:11:26.716Z,7.82
2022-08-17T05:13:56.986Z,8.27
2022-08-17T05:16:30.181Z,7.65
2022-08-17T05:18:58.455Z,8.68
2022-08-17T05:21:30.396Z,7.78
2022-08-17T05:24:03.243Z,7.88
2022-08-17T05:26:41.476Z,8.07
2022-08-17T05:29:35.437Z,7.88
2022-08-17T05:32:39.084Z,8.65
2022-08-17T05:35:07.427Z,8.02
2022-08-17T05:37:34.070Z,9.13
2022-08-17T05:40:05.139Z,8.75
2022-08-17T05:42:31.861Z,8.57
2022-08-17T05:44:58.539Z,8.68
2022-08-17T05:47:30.054Z,8.40
2022-08-17T05:49:58.689Z,8.13
2022-08-17T05:52:46.114Z,7.47
2022-08-17T05:55:40.330Z,8.10
2022-08-17T05:58:30.349Z,7.75
2022-08-17T06:01:16.629Z,7.60
2022-08-17T06:04:02.109Z,8.00
2022-08-17T06:06:51.877Z,7.57
2022-08-17T06:09:33.864Z,7.90
2022-08-17T06:12:32.627Z,7.95
2022-08-17T06:15:24.226Z,7.20
2022-08-17T06:18:28.046Z,7.60
2022-08-17T06:21:38.058Z,6.97
2022-08-17T06:24:34.667Z,6.93
2022-08-17T06:27:14.288Z,6.93
2022-08-17T06:30:15.795Z,6.72
2022-08-17T06:32:47.039Z,6.35
2022-08-17T06:35:17.775Z,6.43
2022-08-17T06:38:37.386Z,6.20
2022-08-17T06:41:28.472Z,7.05
2022-08-17T06:44:42.172Z,6.57
2022-08-17T06:47:44.164Z,6.40
2022-08-17T06:50:30.400Z,6.70
2022-08-17T06:53:17.396Z,6.65
2022-08-17T06:56:09.203Z,6.60
2022-08-17T06:58:40.307Z,6.83
2022-08-17T07:01:14.661Z,6.35
2022-08-17T07:03:57.486Z,6.78
2022-08-17T07:06:38.092Z,7.15
2022-08-17T07:09:27.689Z,6.78
2022-08-17T07:12:18.697Z,6.03
2022-08-17T07:15:05.214Z,6.78
2022-08-17T07:17:46.420Z,6.47
2022-08-17T07:20:50.190Z,6.70
2022-08-17T07:23:33.783Z,6.05
2022-08-17T07:26:06.080Z,6.28
2022-08-17T07:31:36.426Z,5.95
2022-08-17T07:34:35.091Z,6.07
2022-08-17T07:37:08.192Z,5.82
2022-08-17T07:40:15.487Z,6.28
2022-08-17T07:42:33.836Z,5.78
2022-08-17T07:45:22.628Z,5.18
2022-08-17T07:48:09.903Z,5.07
2022-08-17T07:50:49.310Z,5.57
2022-08-17T07:53:24.479Z,5.13
2022-08-17T07:55:54.710Z,5.70
2022-08-17T07:58:25.149Z,5.28
2022-08-17T08:01:14.744Z,5.28
2022-08-17T08:03:44.235Z,5.43
2022-08-17T08:06:25.597Z,4.90
2022-08-17T08:08:56.290Z,5.07
2022-08-17T08:11:43.758Z,5.25
2022-08-17T08:14:28.885Z,5.13
2022-08-17T08:16:59.034Z,5.65
2022-08-17T08:19:27.579Z,5.25
2022-08-17T08:22:04.842Z,4.90
2022-08-17T08:25:15.574Z,5.00
2022-08-17T08:28:04.830Z,5.05
2022-08-17T08:30:39.930Z,4.60
2022-08-17T08:33:57.130Z,4.95
2022-08-17T08:37:14.606Z,5.18
2022-08-17T08:39:58.661Z,5.15
2022-08-17T08:42:55.599Z,4.85
2022-08-17T08:45:30.413Z,5.40
2022-08-17T08:48:05.544Z,5.03
2022-08-17T08:50:47.377Z,5.03
2022-08-17T08:53:23.360Z,5.17
2022-08-17T08:55:59.678Z,4.80
2022-08-17T08:58:42.093Z,4.82
2022-08-17T09:01:57.821Z,5.18
2022-08-17T09:05:13.766Z,4.47
2022-08-17T09:08:17.632Z,5.22
2022-08-17T09:10:58.849Z,4.82
2022-08-17T09:13:54.433Z,5.47
2022-08-17T09:16:32.424Z,5.28
2022-08-17T09:19:10.012Z,5.07
2022-08-17T09:21:55.089Z,5.30
2022-08-17T09:24:32.982Z,5.10
2022-08-17T09:27:17.725Z,5.43
2022-08-17T09:29:55.627Z,5.65
2022-08-17T09:32:35.771Z,5.45
2022-08-17T09:35:12.082Z,4.72
2022-08-17T09:37:59.841Z,5.28
2022-08-17T09:40:44.780Z,5.68
2022-08-17T09:43:59.733Z,5.40
2022-08-17T09:46:46.566Z,5.55
2022-08-17T09:49:29.222Z,5.43
2022-08-17T09:52:23.315Z,5.65
2022-08-17T09:54:52.589Z,5.60
2022-08-17T10:01:48.460Z,5.40
2022-08-17T10:04:36.601Z,5.68
2022-08-17T10:07:40.561Z,5.88
2022-08-17T10:13:09.637Z,5.03
2022-08-17T10:15:58.494Z,5.47
2022-08-17T10:18:37.085Z,5.72
2022-08-17T10:21:31.623Z,6.68
2022-08-17T10:25:20.975Z,6.70
2022-08-17T10:27:42.016Z,6.80
2022-08-17T10:30:13.098Z,6.82
2022-08-17T10:35:45.046Z,6.57
2022-08-17T10:38:14.707Z,7.30
2022-08-17T10:40:55.254Z,7.78
2022-08-17T10:43:55.832Z,6.40
2022-08-17T10:47:00.849Z,7.05
2022-08-17T10:49:51.677Z,6.50
2022-08-17T10:52:30.620Z,6.30
2022-08-17T10:54:58.703Z,5.40
2022-08-17T10:57:50.009Z,5.22
2022-08-17T11:00:24.190Z,4.80
2022-08-17T11:03:01.402Z,4.90
2022-08-17T11:06:04.428Z,4.75
2022-08-17T11:09:06.392Z,4.75
2022-08-17T11:11:52.365Z,5.10
2022-08-17T11:14:55.584Z,5.70
2022-08-17T11:18:00.843Z,5.75
2022-08-17T11:21:08.908Z,5.47
2022-08-17T11:23:57.206Z,5.70
2022-08-17T11:26:32.451Z,5.95
2022-08-17T11:29:05.590Z,5.63
2022-08-17T11:34:33.891Z,5.30
2022-08-17T11:37:03.395Z,4.90
2022-08-17T11:40:05.152Z,5.10
2022-08-17T11:42:52.969Z,5.63
2022-08-17T11:45:54.856Z,5.47
2022-08-17T11:48:49.075Z,5.00
2022-08-17T11:51:29.431Z,4.47
2022-08-17T11:54:21.592Z,4.90
2022-08-17T11:57:20.816Z,5.07
2022-08-17T11:59:47.535Z,4.72
2022-08-17T12:02:31.764Z,4.47
2022-08-17T12:05:20.691Z,4.68
2022-08-17T12:08:03.739Z,4.60
2022-08-17T12:10:36.098Z,3.97
2022-08-17T12:13:12.838Z,4.32
2022-08-17T12:15:47.925Z,4.28
2022-08-17T12:18:27.421Z,4.28
2022-08-17T12:21:08.693Z,4.70
2022-08-17T12:23:58.092Z,4.63
2022-08-17T12:26:31.233Z,4.72
2022-08-17T12:29:04.288Z,4.10
2022-08-17T12:31:44.217Z,3.88
2022-08-17T12:43:20.739Z,4.47
2022-08-17T12:45:57.413Z,4.53
2022-08-17T12:48:32.729Z,4.55
2022-08-17T12:51:01.728Z,4.50
2022-08-17T12:53:31.016Z,4.00
2022-08-17T12:56:15.369Z,4.18
2022-08-17T13:01:24.279Z,4.57
2022-08-17T13:03:54.022Z,4.40
2022-08-17T13:06:28.777Z,3.92
2022-08-17T13:09:14.435Z,4.60
2022-08-17T13:11:54.406Z,4.22
2022-08-17T13:14:21.661Z,3.95
2022-08-17T13:17:00.751Z,4.25
2022-08-17T13:19:40.695Z,4.07
2022-08-17T13:22:36.809Z,3.83
2022-08-17T13:25:12.021Z,4.32
2022-08-17T13:27:42.902Z,4.35
2022-08-17T13:30:11.708Z,4.13
2022-08-17T13:32:46.596Z,4.25
2022-08-17T13:35:50.184Z,3.92
2022-08-17T13:38:38.723Z,4.13
2022-08-17T13:41:30.193Z,4.35
2022-08-17T13:43:58.840Z,4.20
2022-08-17T13:46:30.845Z,3.80
2022-08-17T13:49:04.858Z,3.80
2022-08-17T13:51:43.302Z,4.20
2022-08-17T13:54:22.874Z,3.90
2022-08-17T13:56:54.875Z,3.58
2022-08-17T13:59:36.438Z,4.00
2022-08-17T14:02:20.051Z,3.80
2022-08-17T14:04:48.402Z,4.00
2022-08-17T14:07:15.419Z,3.65
2022-08-17T14:10:05.461Z,3.83
2022-08-17T14:12:34.948Z,3.78
2022-08-17T14:15:05.894Z,4.05
2022-08-17T14:17:38.936Z,3.77
2022-08-17T14:20:30.684Z,3.92
2022-08-17T14:23:01.910Z,3.47
2022-08-17T14:25:29.088Z,4.28
2022-08-17T14:27:56.219Z,3.50
2022-08-17T14:30:29.900Z,3.78
2022-08-17T14:32:59.086Z,3.78
2022-08-17T14:35:30.915Z,3.75
2022-08-17T14:37:58.158Z,3.88
2022-08-17T14:40:25.500Z,3.70
2022-08-17T14:43:02.349Z,3.83
2022-08-17T14:45:32.750Z,4.00
2022-08-17T14:48:03.255Z,4.00
2022-08-17T14:50:35.254Z,3.88
2022-08-17T14:53:08.109Z,3.38
2022-08-17T14:55:36.098Z,3.47
2022-08-17T14:58:06.372Z,4.15
2022-08-17T15:00:38.886Z,3.75
2022-08-17T15:03:10.727Z,3.70
2022-08-17T15:05:41.962Z,3.38
2022-08-17T15:08:12.079Z,3.63
2022-08-17T15:10:54.473Z,3.80
2022-08-17T15:13:25.035Z,3.78
2022-08-17T15:15:53.082Z,3.93
2022-08-17T15:18:20.376Z,3.50
2022-08-17T15:20:49.270Z,3.33
2022-08-17T15:23:23.754Z,3.47
2022-08-17T15:34:25.137Z,3.67
2022-08-17T15:36:52.596Z,3.40
2022-08-17T15:39:21.801Z,3.45
2022-08-17T15:41:58.343Z,3.42
2022-08-17T15:44:32.543Z,3.58
2022-08-17T15:47:01.790Z,3.28
2022-08-17T15:49:32.086Z,3.72
2022-08-17T15:52:03.069Z,3.97
2022-08-17T15:54:34.509Z,3.70
2022-08-17T15:59:34.102Z,3.45
2022-08-17T16:03:16.010Z,4.00
2022-08-17T16:04:51.909Z,3.80
2022-08-17T16:07:26.839Z,3.90
2022-08-17T16:09:59.681Z,3.50
2022-08-17T16:12:26.423Z,3.67
2022-08-17T16:14:57.872Z,3.88
2022-08-17T16:17:49.509Z,3.83
2022-08-17T16:20:20.254Z,3.85
2022-08-17T16:22:51.443Z,3.60
2022-08-17T16:25:47.201Z,3.83
2022-08-17T16:28:16.912Z,3.40
2022-08-17T16:30:45.834Z,3.72
2022-08-17T16:33:12.845Z,4.00
2022-08-17T16:35:42.158Z,3.85
2022-08-17T16:38:11.870Z,3.42
2022-08-17T16:40:39.737Z,3.50
2022-08-17T16:43:09.679Z,3.30
2022-08-17T16:45:39.423Z,3.30
2022-08-17T16:48:07.393Z,3.30
2022-08-17T16:51:04.178Z,3.70
2022-08-17T16:53:39.759Z,3.40
2022-08-17T16:56:06.714Z,3.42
2022-08-17T16:58:38.663Z,3.35
2022-08-17T17:01:34.498Z,3.42
2022-08-17T17:04:10.305Z,3.85
2022-08-17T17:06:56.252Z,5.97
2022-08-17T17:09:27.192Z,7.40
2022-08-17T17:11:58.916Z,6.50
2022-08-17T17:14:27.698Z,5.93
2022-08-17T17:23:09.410Z,4.20
2022-08-17T17:26:02.907Z,3.67
2022-08-17T17:28:29.504Z,4.43
2022-08-17T17:31:08.263Z,4.57
2022-08-17T17:43:14.534Z,4.05
2022-08-17T17:46:21.899Z,4.35
2022-08-17T17:48:57.465Z,4.47
2022-08-17T17:52:02.895Z,4.50
2022-08-17T18:00:24.798Z,4.38
2022-08-17T18:05:57.262Z,4.60
2022-08-17T18:08:50.309Z,4.72
2022-08-17T18:11:24.612Z,5.90
2022-08-17T18:14:24.251Z,4.50
2022-08-17T18:16:55.624Z,4.25
2022-08-17T18:19:25.306Z,4.65
2022-08-17T18:22:14.938Z,4.63
2022-08-17T18:24:55.262Z,4.47
2022-08-17T18:27:24.813Z,4.25
2022-08-17T18:29:54.335Z,4.47
2022-08-17T18:32:43.738Z,4.38
2022-08-17T18:35:13.562Z,4.68
2022-08-17T18:37:42.206Z,4.75
2022-08-17T18:40:34.832Z,4.95
2022-08-17T18:43:43.849Z,4.88
2022-08-17T18:46:38.203Z,5.15
2022-08-17T18:49:29.374Z,4.70
2022-08-17T18:52:14.560Z,4.05
2022-08-17T18:55:08.234Z,4.43
2022-08-17T18:57:40.006Z,4.50
2022-08-17T19:00:29.904Z,4.78
2022-08-17T19:03:05.006Z,4.75
2022-08-17T19:05:42.115Z,4.57
2022-08-17T19:08:20.941Z,5.40
2022-08-17T19:11:04.822Z,4.50
2022-08-17T19:13:46.725Z,4.25
2022-08-17T19:16:28.367Z,5.30
2022-08-17T19:19:33.267Z,5.03
2022-08-17T19:22:28.479Z,4.93
2022-08-17T19:25:11.834Z,4.70
2022-08-17T19:28:22.180Z,5.18
2022-08-17T19:31:03.008Z,5.00
2022-08-17T19:33:33.987Z,4.60
2022-08-17T19:36:09.627Z,5.00
2022-08-17T19:39:15.847Z,4.72
2022-08-17T19:42:13.425Z,4.80
2022-08-17T19:45:06.733Z,4.90
2022-08-17T19:47:54.437Z,4.53
2022-08-17T19:50:38.514Z,4.93
2022-08-17T19:53:17.760Z,4.40
2022-08-17T19:56:07.916Z,4.95
2022-08-17T19:59:00.575Z,5.18
2022-08-17T20:01:58.321Z,4.95
2022-08-17T20:04:38.431Z,4.65
2022-08-17T20:07:29.484Z,4.80
2022-08-17T20:10:07.497Z,5.45
2022-08-17T20:12:39.275Z,4.88
2022-08-17T20:15:12.522Z,5.10
2022-08-17T20:17:42.555Z,4.63
2022-08-17T20:20:19.574Z,4.55
2022-08-17T20:23:08.611Z,4.80
2022-08-17T20:25:51.075Z,5.32
2022-08-17T20:29:04.568Z,4.82
2022-08-17T20:31:49.889Z,4.55
2022-08-17T20:34:25.747Z,4.30
2022-08-17T20:37:14.733Z,4.75
2022-08-17T20:40:08.812Z,4.95
2022-08-17T20:42:36.195Z,5.32
2022-08-17T20:48:36.700Z,5.00
2022-08-17T20:54:16.835Z,4.55
2022-08-17T20:56:43.605Z,4.60
2022-08-17T20:59:24.915Z,5.47
2022-08-17T21:02:18.604Z,4.90
2022-08-17T21:17:21.031Z,4.70
2022-08-17T21:23:11.509Z,5.53
2022-08-17T21:51:59.887Z,5.00
2022-08-17T21:54:31.564Z,5.25
2022-08-17T21:57:02.776Z,5.30
2022-08-17T21:59:38.558Z,6.10
2022-08-17T22:02:19.654Z,6.07
2022-08-17T22:05:08.128Z,5.15
2022-08-17T22:07:42.118Z,5.43
2022-08-17T22:10:42.488Z,5.35
2022-08-17T22:13:16.945Z,5.32
2022-08-17T22:16:15.683Z,5.40
2022-08-17T22:18:57.284Z,5.18
2022-08-17T22:21:27.506Z,4.50
2022-08-17T22:24:04.185Z,4.90
2022-08-17T22:27:05.756Z,4.35
2022-08-17T22:30:47.751Z,4.50
2022-08-17T22:33:34.752Z,4.68
2022-08-17T22:36:10.315Z,4.72
2022-08-17T22:38:38.122Z,4.25
2022-08-17T22:41:27.226Z,5.00
2022-08-17T22:47:03.773Z,4.18
2022-08-17T22:49:31.914Z,4.32
2022-08-17T22:55:36.838Z,4.95
2022-08-17T23:00:55.499Z,4.30
2022-08-17T23:03:27.318Z,4.35
2022-08-17T23:06:20.071Z,4.05
2022-08-17T23:17:12.691Z,5.47
2022-08-17T23:19:39.449Z,4.47
2022-08-17T23:22:11.038Z,4.63
2022-08-17T23:24:42.707Z,5.18
2022-08-17T23:27:09.866Z,4.65
2022-08-17T23:29:56.896Z,5.13
2022-08-17T23:32:24.774Z,5.10
2022-08-17T23:34:54.506Z,4.90
2022-08-17T23:37:22.456Z,5.50
2022-08-17T23:39:51.457Z,5.25
2022-08-17T23:42:24.848Z,5.35
2022-08-17T23:44:55.122Z,5.45
2022-08-17T23:47:34.783Z,4.90
2022-08-17T23:50:04.659Z,5.53
2022-08-17T23:52:37.017Z,5.32
2022-08-17T23:58:05.039Z,5.28
